Time;durP1;ratioP1;P1;durP2;ratioP2;P2;SDS_P1;SDS_P2;PMS_P1;PMS_P2;Temp;Humidity;BMP_temperature;BMP_pressure;BME280_temperature;BME280_humidity;BME280_pressure;Samples;Min_cycle;Max_cycle;Signal;HPM_P1;HPM_P2
2021/08/19 00:00:20;;;;;;;9.77;8.80;;;;;;;16.76;89.11;101204.75;2106708;28;20077;-61
2021/08/19 00:01:21;;;;;;;11.50;8.43;;;;;;;16.75;89.46;101198.63;2097749;28;20027;-61
2021/08/19 00:02:21;;;;;;;12.33;9.67;;;;;;;16.75;89.42;101196.00;2097808;28;20028;-61
2021/08/19 00:03:21;;;;;;;12.83;10.20;;;;;;;16.75;89.21;101209.16;2106595;28;20035;-61
2021/08/19 00:04:21;;;;;;;10.63;9.63;;;;;;;16.77;89.04;101206.44;2106763;28;20385;-62
2021/08/19 00:05:22;;;;;;;11.57;9.83;;;;;;;16.76;88.95;101199.50;2106742;28;20052;-62
2021/08/19 00:06:23;;;;;;;11.85;10.63;;;;;;;16.77;88.83;101195.91;2097767;28;20555;-62
2021/08/19 00:07:23;;;;;;;10.13;9.10;;;;;;;16.78;88.86;101197.59;2097871;28;20020;-62
2021/08/19 00:08:23;;;;;;;14.03;10.13;;;;;;;16.76;88.86;101199.50;2106670;28;20028;-62
2021/08/19 00:09:23;;;;;;;10.40;9.50;;;;;;;16.76;89.00;101199.50;2106700;28;20026;-62
2021/08/19 00:10:24;;;;;;;12.93;10.87;;;;;;;16.74;88.57;101186.41;2106728;28;20020;-62
2021/08/19 00:11:25;;;;;;;15.55;10.77;;;;;;;16.73;88.82;101198.72;2106526;28;20077;-62
2021/08/19 00:12:25;;;;;;;11.05;9.90;;;;;;;16.71;88.37;101197.13;2106673;28;20024;-61
2021/08/19 00:13:25;;;;;;;11.50;9.33;;;;;;;16.69;88.09;101199.84;2106642;28;20023;-61
2021/08/19 00:14:26;;;;;;;12.67;11.57;;;;;;;16.69;88.74;101194.59;2106783;28;20094;-62
2021/08/19 00:15:28;;;;;;;12.85;10.93;;;;;;;16.66;88.38;101200.03;2107020;28;20028;-63
2021/08/19 00:16:28;;;;;;;14.95;9.40;;;;;;;16.66;88.48;101193.94;2108433;28;20038;-63
2021/08/19 00:17:28;;;;;;;11.50;10.40;;;;;;;16.66;88.81;101199.22;2099357;28;20024;-61
2021/08/19 00:18:28;;;;;;;9.40;8.50;;;;;;;16.65;88.59;101206.25;2099484;28;20079;-63
2021/08/19 00:19:29;;;;;;;11.37;10.27;;;;;;;16.63;88.57;101197.59;2108394;28;20028;-61
2021/08/19 00:20:31;;;;;;;11.03;9.73;;;;;;;16.62;88.47;101198.53;2108416;28;20028;-61
2021/08/19 00:21:31;;;;;;;10.75;8.10;;;;;;;16.63;88.70;101199.41;2108405;28;20483;-61
2021/08/19 00:22:32;;;;;;;10.20;8.73;;;;;;;16.62;89.13;101197.72;2108421;28;20035;-62
2021/08/19 00:23:34;;;;;;;10.40;8.20;;;;;;;16.60;88.93;101200.44;2108396;28;20427;-63
2021/08/19 00:24:35;;;;;;;12.77;9.90;;;;;;;16.58;89.13;101200.53;2108330;28;20032;-63
2021/08/19 00:25:36;;;;;;;10.67;8.90;;;;;;;16.57;89.27;101192.72;2108422;28;20027;-62
2021/08/19 00:26:36;;;;;;;;;;;;;;;16.57;89.16;101200.63;2108708;28;20024;-61
2021/08/19 00:27:36;;;;;;;10.70;9.63;;;;;;;16.57;89.11;101195.38;2108161;28;19912;-62
2021/08/19 00:28:37;;;;;;;13.77;10.13;;;;;;;16.56;89.19;101198.94;2108263;28;20038;-61
2021/08/19 00:29:37;;;;;;;12.57;9.87;;;;;;;16.55;88.95;101197.22;2108307;28;20385;-62
2021/08/19 00:30:38;;;;;;;13.80;10.07;;;;;;;16.54;89.34;101195.56;2108389;28;20373;-61
2021/08/19 00:31:38;;;;;;;12.90;9.95;;;;;;;16.52;89.09;101197.44;2108332;28;20016;-62
2021/08/19 00:32:38;;;;;;;10.50;8.80;;;;;;;16.50;89.40;101194.06;2108285;28;20554;-62
2021/08/19 00:33:39;;;;;;;12.47;10.63;;;;;;;16.48;89.18;101189.72;2108332;28;20102;-63
2021/08/19 00:34:39;;;;;;;12.53;11.23;;;;;;;16.49;89.50;101193.19;2108281;28;20024;-61
2021/08/19 00:35:39;;;;;;;13.27;10.40;;;;;;;16.47;89.12;101190.69;2099285;28;20024;-62
2021/08/19 00:36:40;;;;;;;14.60;11.33;;;;;;;16.45;89.46;101192.53;2099497;28;20021;-62
2021/08/19 00:37:40;;;;;;;11.17;9.17;;;;;;;16.45;89.55;101191.69;2108248;28;20031;-62
2021/08/19 00:38:40;;;;;;;12.13;10.83;;;;;;;16.42;89.50;101192.72;2108243;28;20020;-62
2021/08/19 00:39:45;;;;;;;12.80;10.53;;;;;;;16.43;89.66;101189.16;2107767;28;20024;-63
2021/08/19 00:40:45;;;;;;;11.80;10.15;;;;;;;16.42;89.69;101187.47;2108274;28;20028;-62
2021/08/19 00:41:45;;;;;;;11.97;9.80;;;;;;;16.42;89.71;101189.28;2108288;28;20523;-62
2021/08/19 00:42:45;;;;;;;13.93;10.85;;;;;;;16.40;90.01;101186.72;2108191;28;20051;-63
2021/08/19 00:43:46;;;;;;;12.13;10.87;;;;;;;16.39;89.74;101185.00;2108161;28;20069;-62
2021/08/19 00:44:47;;;;;;;12.55;8.90;;;;;;;16.38;89.84;101180.69;2108234;28;20050;-61
2021/08/19 00:45:47;;;;;;;11.77;10.57;;;;;;;16.36;90.13;101177.31;2108232;28;20082;-61
2021/08/19 00:46:47;;;;;;;13.50;10.10;;;;;;;16.35;90.06;101180.88;2099146;28;20031;-61
2021/08/19 00:47:48;;;;;;;10.17;9.17;;;;;;;16.34;89.97;101189.72;2099206;28;20024;-61
2021/08/19 00:48:48;;;;;;;12.63;10.37;;;;;;;16.32;90.14;101186.34;2108171;28;20050;-62
2021/08/19 00:49:48;;;;;;;12.10;10.93;;;;;;;16.30;90.10;101182.97;2108123;28;20206;-62
2021/08/19 00:50:48;;;;;;;11.70;10.63;;;;;;;16.29;90.23;101181.28;2107986;28;20031;-63
2021/08/19 00:51:52;;;;;;;14.03;11.80;;;;;;;16.27;90.40;101177.88;2108199;28;20127;-63
2021/08/19 00:52:52;;;;;;;13.90;11.23;;;;;;;16.24;90.28;101178.06;2107962;28;20028;-63
2021/08/19 00:53:53;;;;;;;15.23;13.30;;;;;;;16.20;90.67;101186.16;2099179;28;20509;-61
2021/08/19 00:54:54;;;;;;;12.30;11.10;;;;;;;16.17;90.69;101183.72;2099069;28;20036;-61
2021/08/19 00:55:54;;;;;;;12.13;10.57;;;;;;;16.15;90.78;101180.31;2108085;28;20112;-62
2021/08/19 00:56:56;;;;;;;13.87;10.60;;;;;;;16.13;90.96;101186.63;2108183;28;20377;-62
2021/08/19 00:57:57;;;;;;;13.35;11.57;;;;;;;16.12;90.75;101175.25;2108223;28;20059;-62
2021/08/19 00:58:57;;;;;;;12.50;10.43;;;;;;;16.11;91.08;101184.06;2108076;28;20035;-63
2021/08/19 00:59:58;;;;;;;14.50;11.73;;;;;;;16.08;91.09;101179.03;2108166;28;20381;-62
2021/08/19 01:00:58;;;;;;;14.57;12.05;;;;;;;16.06;91.34;101181.75;2108119;28;20030;-61
2021/08/19 01:01:59;;;;;;;13.20;11.80;;;;;;;16.04;91.07;101178.34;2107990;28;20043;-61
2021/08/19 01:03:00;;;;;;;10.40;8.45;;;;;;;16.05;91.18;101179.19;2107865;28;20027;-62
2021/08/19 01:04:02;;;;;;;11.73;10.52;;;;;;;16.04;91.46;101178.34;2108108;28;20107;-63
2021/08/19 01:05:05;;;;;;;11.63;10.38;;;;;;;16.04;91.49;101180.13;2107655;28;20384;-63
2021/08/19 01:06:05;;;;;;;15.25;9.68;;;;;;;16.02;91.36;101177.59;2108001;28;20028;-63
2021/08/19 01:07:06;;;;;;;9.90;8.90;;;;;;;16.02;91.47;101180.22;2108049;28;20044;-62
2021/08/19 01:08:10;;;;;;;14.10;11.38;;;;;;;16.02;91.56;101180.22;2107910;28;20024;-62
2021/08/19 01:09:10;;;;;;;13.68;12.15;;;;;;;16.02;91.49;101169.72;2108017;28;20031;-61
2021/08/19 01:10:11;;;;;;;12.82;11.45;;;;;;;16.03;91.64;101173.16;2108024;28;20028;-63
2021/08/19 01:11:12;;;;;;;12.68;11.38;;;;;;;16.01;91.67;101175.06;2099053;28;20123;-62
2021/08/19 01:12:13;;;;;;;17.08;11.93;;;;;;;16.02;91.42;101172.34;2098448;28;20089;-62
2021/08/19 01:13:14;;;;;;;14.05;12.02;;;;;;;16.00;91.71;101171.56;2107472;28;20023;-62
2021/08/19 01:14:15;;;;;;;14.30;11.00;;;;;;;16.01;91.64;101185.59;2107492;28;20028;-62
2021/08/19 01:15:15;;;;;;;12.93;10.80;;;;;;;16.00;91.66;101181.25;2107450;28;20385;-63
2021/08/19 01:16:18;;;;;;;12.83;11.50;;;;;;;16.00;91.79;101175.97;2107432;28;20028;-62
2021/08/19 01:17:18;;;;;;;12.70;11.30;;;;;;;16.00;91.53;101181.25;2107224;28;20020;-62
2021/08/19 01:18:18;;;;;;;12.90;10.97;;;;;;;16.01;91.50;101172.44;2107488;28;20143;-63
2021/08/19 01:19:21;;;;;;;12.90;10.73;;;;;;;16.01;91.63;101172.44;2107467;28;20408;-62
2021/08/19 01:20:26;;;;;;;12.77;11.43;;;;;;;16.01;91.55;101177.69;2107447;28;20020;-62
2021/08/19 01:21:26;;;;;;;12.50;11.20;;;;;;;16.02;91.68;101180.22;2107430;28;20042;-62
2021/08/19 01:22:27;;;;;;;15.37;11.37;;;;;;;16.02;91.60;101179.38;2107433;28;20027;-62
2021/08/19 01:23:27;;;;;;;12.50;10.13;;;;;;;16.02;91.64;101171.47;2107470;28;20031;-61
2021/08/19 01:24:27;;;;;;;15.80;12.40;;;;;;;16.02;91.49;101174.13;2107428;28;20500;-63
2021/08/19 01:25:28;;;;;;;13.37;11.97;;;;;;;16.03;91.38;101175.78;2107320;28;20044;-63
2021/08/19 01:26:28;;;;;;;15.35;12.05;;;;;;;16.04;91.62;101172.22;2107083;28;20538;-62
2021/08/19 01:27:30;;;;;;;12.03;10.93;;;;;;;16.05;91.25;101168.66;2098202;28;20025;-63
2021/08/19 01:28:30;;;;;;;15.48;11.38;;;;;;;16.05;91.49;101173.94;2098474;28;20032;-62
2021/08/19 01:29:30;;;;;;;14.37;11.57;;;;;;;16.05;91.47;101168.66;2098355;28;20112;-62
2021/08/19 01:30:31;;;;;;;15.23;11.93;;;;;;;16.04;91.47;101162.56;2098513;28;20024;-63
2021/08/19 01:31:33;;;;;;;17.80;12.02;;;;;;;16.03;91.23;101162.63;2107341;28;20016;-62
2021/08/19 01:32:33;;;;;;;16.48;11.50;;;;;;;16.02;91.12;101164.44;2107398;28;20036;-61
2021/08/19 01:33:34;;;;;;;13.67;12.20;;;;;;;16.05;91.52;101173.94;2107253;28;20431;-62
2021/08/19 01:34:34;;;;;;;13.82;12.27;;;;;;;16.04;91.05;101167.81;2098367;28;20481;-62
2021/08/19 01:35:35;;;;;;;13.95;12.02;;;;;;;16.04;90.99;101174.84;2098371;28;20052;-62
2021/08/19 01:36:35;;;;;;;14.20;12.38;;;;;;;16.04;91.37;101164.31;2107229;28;20028;-62
2021/08/19 01:37:35;;;;;;;16.47;12.23;;;;;;;16.04;91.34;101172.22;2107367;28;20058;-62
2021/08/19 01:38:37;;;;;;;12.13;9.33;;;;;;;16.05;91.13;101163.41;2107372;28;20024;-62
2021/08/19 01:39:38;;;;;;;13.43;12.13;;;;;;;16.05;90.85;101158.97;2107130;28;20076;-62
2021/08/19 01:40:38;;;;;;;14.80;11.57;;;;;;;16.05;90.80;101163.41;2107396;28;20036;-62
2021/08/19 01:41:38;;;;;;;14.50;11.33;;;;;;;16.06;90.96;101176.47;2107336;28;20042;-62
2021/08/19 01:42:40;;;;;;;13.90;11.17;;;;;;;16.07;91.24;101166.78;2107313;28;20031;-61
2021/08/19 01:43:41;;;;;;;14.77;11.32;;;;;;;16.08;90.80;101168.50;2098219;28;20094;-61
2021/08/19 01:44:42;;;;;;;12.63;8.52;;;;;;;16.08;90.91;101171.94;2098333;28;20028;-62
2021/08/19 01:45:42;;;;;;;11.43;10.30;;;;;;;16.09;91.15;101167.53;2107308;28;20024;-63
2021/08/19 01:46:42;;;;;;;14.17;10.57;;;;;;;16.09;91.19;101160.47;2107497;28;20497;-62
2021/08/19 01:47:43;;;;;;;12.32;10.80;;;;;;;16.09;90.97;101164.91;2097980;28;20508;-61
2021/08/19 01:48:45;;;;;;;15.50;11.13;;;;;;;16.07;90.82;101158.88;2098280;28;20032;-62
2021/08/19 01:49:45;;;;;;;13.48;12.00;;;;;;;16.08;90.61;101163.22;2106513;28;20020;-63
2021/08/19 01:50:45;;;;;;;13.53;11.47;;;;;;;16.07;90.61;101162.38;2106731;28;20103;-62
2021/08/19 01:51:47;;;;;;;13.70;11.83;;;;;;;16.07;91.00;101164.13;2098191;28;20525;-62
2021/08/19 01:52:47;;;;;;;13.38;11.80;;;;;;;16.06;90.86;101155.41;2098357;28;20063;-63
2021/08/19 01:53:49;;;;;;;14.27;12.27;;;;;;;16.07;90.85;101159.72;2107265;28;20481;-61
2021/08/19 01:54:49;;;;;;;14.63;11.25;;;;;;;16.10;90.78;101161.34;2107109;28;20230;-62
2021/08/19 01:55:51;;;;;;;16.27;11.33;;;;;;;16.11;90.50;101164.81;2107293;28;20028;-61
2021/08/19 01:56:51;;;;;;;14.82;11.60;;;;;;;16.09;90.59;101165.75;2107234;28;20353;-63
2021/08/19 01:57:51;;;;;;;12.80;9.90;;;;;;;16.11;90.61;101167.44;2107269;28;20020;-62
2021/08/19 01:58:53;;;;;;;15.67;12.20;;;;;;;16.13;90.79;101161.16;2107264;28;20098;-61
2021/08/19 01:59:54;;;;;;;14.88;12.15;;;;;;;16.13;90.85;101162.94;2107143;28;20031;-62
2021/08/19 02:00:54;;;;;;;15.27;11.77;;;;;;;16.12;90.72;101156.84;2107273;28;20055;-62
2021/08/19 02:01:56;;;;;;;13.60;10.85;;;;;;;16.13;90.40;101158.50;2107189;28;20024;-61
2021/08/19 02:02:56;;;;;;;13.27;11.13;;;;;;;16.13;90.25;101149.75;2098076;28;20038;-62
2021/08/19 02:03:56;;;;;;;13.10;11.63;;;;;;;16.13;90.30;101158.50;2098133;28;20401;-63
2021/08/19 02:04:57;;;;;;;16.37;12.00;;;;;;;16.13;89.90;101166.41;2098281;28;20498;-63
2021/08/19 02:05:57;;;;;;;14.33;11.20;;;;;;;16.12;90.27;101156.84;2107096;28;20016;-62
2021/08/19 02:06:58;;;;;;;15.75;11.73;;;;;;;16.12;90.27;101156.84;2098173;28;20020;-62
2021/08/19 02:07:58;;;;;;;13.50;10.33;;;;;;;16.13;90.22;101155.88;2098168;28;20544;-63
2021/08/19 02:08:58;;;;;;;13.43;10.50;;;;;;;16.13;90.42;101160.28;2107116;28;20416;-62
2021/08/19 02:09:58;;;;;;;12.03;10.67;;;;;;;16.13;90.16;101166.41;2107078;28;20089;-62
2021/08/19 02:10:59;;;;;;;15.00;11.63;;;;;;;16.12;90.17;101156.84;2107188;28;20109;-62
2021/08/19 02:11:59;;;;;;;12.57;10.10;;;;;;;16.12;90.37;101158.59;2071341;28;1024229;-61
2021/08/19 02:12:59;;;;;;;14.30;11.23;;;;;;;16.12;90.31;101164.72;2107454;28;20046;-62
2021/08/19 02:13:59;;;;;;;19.13;11.50;;;;;;;16.13;90.64;101161.16;2107523;28;20043;-63
2021/08/19 02:15:00;;;;;;;11.60;10.13;;;;;;;16.13;90.48;101155.03;2098522;28;20036;-62
2021/08/19 02:16:00;;;;;;;14.02;11.32;;;;;;;16.12;90.27;101159.47;2098521;28;20032;-60
2021/08/19 02:17:01;;;;;;;15.20;10.38;;;;;;;16.12;90.48;101162.09;2098487;28;20023;-61
2021/08/19 02:18:01;;;;;;;15.77;10.93;;;;;;;16.12;90.29;101162.09;2098528;28;20016;-62
2021/08/19 02:19:02;;;;;;;11.87;10.50;;;;;;;16.11;90.07;101156.91;2107383;28;20109;-61
2021/08/19 02:20:02;;;;;;;13.43;11.70;;;;;;;16.10;90.01;101156.06;2107323;28;20028;-62
2021/08/19 02:21:03;;;;;;;13.07;11.75;;;;;;;16.11;89.88;101156.91;2107484;28;20469;-61
2021/08/19 02:22:03;;;;;;;15.97;12.33;;;;;;;16.10;90.15;101161.34;2098410;28;20021;-62
2021/08/19 02:23:04;;;;;;;14.85;11.43;;;;;;;16.10;90.48;101156.06;2098474;28;20466;-62
2021/08/19 02:24:04;;;;;;;16.98;12.88;;;;;;;16.09;90.21;101149.13;2107438;28;20101;-62
2021/08/19 02:25:05;;;;;;;14.45;12.07;;;;;;;16.11;90.29;101152.47;2107257;28;20067;-63
2021/08/19 02:26:05;;;;;;;15.50;11.75;;;;;;;16.12;90.36;101161.25;2107436;28;20024;-63
2021/08/19 02:27:06;;;;;;;15.50;12.90;;;;;;;16.12;90.07;101164.72;2107423;28;20469;-63
2021/08/19 02:28:06;;;;;;;13.80;12.40;;;;;;;16.10;89.85;101161.34;2107419;28;20376;-62
2021/08/19 02:29:07;;;;;;;14.82;11.30;;;;;;;16.11;90.24;101157.75;2107274;28;20039;-63
2021/08/19 02:30:08;;;;;;;19.20;14.87;;;;;;;16.10;89.56;101161.34;2107408;28;20016;-63
2021/08/19 02:31:09;;;;;;;16.00;12.82;;;;;;;16.09;89.62;101155.22;2107401;28;20534;-62
2021/08/19 02:32:09;;;;;;;15.53;13.83;;;;;;;16.12;89.91;101161.25;2107438;28;20027;-62
2021/08/19 02:33:09;;;;;;;14.23;12.77;;;;;;;16.12;89.74;101153.34;2107432;28;20395;-62
2021/08/19 02:34:10;;;;;;;14.63;12.70;;;;;;;16.12;89.92;101154.19;2107485;28;20389;-63
2021/08/19 02:35:11;;;;;;;21.55;14.45;;;;;;;16.12;89.61;101148.94;2107391;28;20103;-63
2021/08/19 02:36:11;;;;;;;16.45;13.25;;;;;;;16.11;89.81;101149.84;2107381;28;20027;-62
2021/08/19 02:37:11;;;;;;;19.30;14.93;;;;;;;16.12;89.95;101150.72;2107366;28;20027;-63
2021/08/19 02:38:12;;;;;;;17.77;14.53;;;;;;;16.11;89.68;101146.41;2106617;28;20024;-62
2021/08/19 02:39:12;;;;;;;18.00;13.53;;;;;;;16.11;89.75;101147.22;2098357;28;20111;-61
2021/08/19 02:40:13;;;;;;;19.00;13.90;;;;;;;16.10;89.68;101145.53;2098358;28;20025;-62
2021/08/19 02:41:13;;;;;;;17.05;12.55;;;;;;;16.12;89.76;101142.81;2107358;28;20095;-62
2021/08/19 02:42:13;;;;;;;22.40;16.67;;;;;;;16.10;89.72;101145.53;2107254;28;20102;-62
2021/08/19 02:43:13;;;;;;;20.00;16.77;;;;;;;16.09;89.22;101149.13;2107204;28;20059;-62
2021/08/19 02:44:14;;;;;;;20.33;15.33;;;;;;;16.07;89.05;101140.44;2107328;28;20024;-62
2021/08/19 02:45:14;;;;;;;18.60;16.23;;;;;;;16.09;89.42;101149.94;2098267;28;20020;-63
2021/08/19 02:46:14;;;;;;;20.37;16.17;;;;;;;16.05;89.51;101137.91;2098324;28;20519;-62
2021/08/19 02:47:14;;;;;;;23.13;15.53;;;;;;;16.04;89.63;101141.50;2107198;28;20106;-63
2021/08/19 02:48:15;;;;;;;21.63;16.90;;;;;;;16.05;89.34;101142.34;2107168;28;20024;-64
2021/08/19 02:49:15;;;;;;;20.87;14.37;;;;;;;16.05;89.54;101139.72;2107370;28;20095;-63
2021/08/19 02:50:17;;;;;;;25.37;17.40;;;;;;;16.05;89.74;101147.63;2107236;28;20538;-63
2021/08/19 02:51:17;;;;;;;20.60;16.77;;;;;;;16.05;89.74;101145.81;2107323;28;20035;-63
2021/08/19 02:52:17;;;;;;;19.80;17.63;;;;;;;16.06;89.52;101149.28;2107174;28;20048;-61
2021/08/19 02:53:17;;;;;;;18.00;14.87;;;;;;;16.06;89.90;101144.88;2107177;28;20027;-62
2021/08/19 02:54:18;;;;;;;20.53;14.40;;;;;;;16.06;89.69;101144.03;2107194;28;20027;-62
2021/08/19 02:55:18;;;;;;;22.53;15.97;;;;;;;16.06;89.68;101138.75;2107199;28;20024;-63
2021/08/19 02:56:18;;;;;;;20.57;16.93;;;;;;;16.04;89.36;101140.63;2107108;28;20167;-63
2021/08/19 02:57:19;;;;;;;20.33;16.50;;;;;;;16.04;89.36;101145.91;2107110;28;20028;-62
2021/08/19 02:58:19;;;;;;;21.90;17.33;;;;;;;16.03;89.50;101146.84;2107112;28;20071;-62
2021/08/19 02:59:19;;;;;;;22.17;17.07;;;;;;;16.03;89.41;101138.94;2107256;28;20317;-63
2021/08/19 03:00:19;;;;;;;21.40;16.63;;;;;;;16.02;89.59;101148.66;2107151;28;20020;-62
2021/08/19 03:01:20;;;;;;;20.67;16.03;;;;;;;16.03;89.49;101144.22;2107164;28;20099;-63
2021/08/19 03:02:20;;;;;;;19.33;14.13;;;;;;;16.02;89.87;101142.53;2107144;28;20020;-63
2021/08/19 03:03:20;;;;;;;20.33;16.70;;;;;;;16.02;89.50;101139.91;2107155;28;20020;-64
2021/08/19 03:04:20;;;;;;;18.93;14.13;;;;;;;16.02;89.68;101134.63;2107120;28;20501;-61
2021/08/19 03:05:21;;;;;;;20.90;16.77;;;;;;;16.01;89.34;101135.56;2107221;28;20099;-62
2021/08/19 03:06:21;;;;;;;23.30;18.23;;;;;;;16.00;89.73;101128.59;2107098;28;20031;-61
2021/08/19 03:07:23;;;;;;;20.97;15.80;;;;;;;15.99;89.38;101138.31;2107139;28;20025;-61
2021/08/19 03:08:23;;;;;;;22.38;17.30;;;;;;;15.97;89.41;101132.28;2106981;28;20174;-61
2021/08/19 03:09:23;;;;;;;22.57;16.83;;;;;;;15.96;89.82;101139.34;2107079;28;20019;-61
2021/08/19 03:10:24;;;;;;;19.67;17.03;;;;;;;15.95;89.81;101132.34;2107003;28;20028;-62
2021/08/19 03:11:24;;;;;;;24.70;16.50;;;;;;;15.94;89.42;101135.91;2106959;28;20087;-62
2021/08/19 03:12:25;;;;;;;21.57;17.23;;;;;;;15.93;89.43;101142.13;2107069;28;20103;-62
2021/08/19 03:13:25;;;;;;;20.40;17.00;;;;;;;15.92;89.87;101140.44;2106933;28;20028;-62
2021/08/19 03:14:25;;;;;;;21.87;16.07;;;;;;;15.92;90.02;101135.16;2107071;28;20024;-62
2021/08/19 03:15:26;;;;;;;20.73;16.53;;;;;;;15.93;89.97;101136.84;2106983;28;20281;-63
2021/08/19 03:16:26;;;;;;;17.33;15.53;;;;;;;15.95;89.70;101148.16;2107008;28;20039;-64
2021/08/19 03:17:27;;;;;;;17.10;14.50;;;;;;;15.95;89.82;101140.25;2107014;28;20098;-63
2021/08/19 03:18:27;;;;;;;22.17;16.42;;;;;;;15.96;89.60;101135.84;2107043;28;20024;-63
2021/08/19 03:19:28;;;;;;;22.37;17.00;;;;;;;15.93;89.63;101136.84;2107076;28;20023;-64
2021/08/19 03:20:28;;;;;;;20.58;16.58;;;;;;;15.93;89.58;101131.59;2098035;28;20082;-62
2021/08/19 03:21:29;;;;;;;18.10;15.70;;;;;;;15.93;89.78;101136.00;2098054;28;20023;-62
2021/08/19 03:22:29;;;;;;;22.83;16.08;;;;;;;15.92;89.37;101129.91;2106915;28;20039;-62
2021/08/19 03:23:30;;;;;;;20.37;14.77;;;;;;;15.93;89.68;101136.84;2107054;28;20081;-61
2021/08/19 03:24:30;;;;;;;22.13;15.55;;;;;;;15.94;89.57;101140.31;2106984;28;20067;-63
2021/08/19 03:25:31;;;;;;;21.05;15.98;;;;;;;15.91;89.27;101141.34;2106896;28;20465;-61
2021/08/19 03:26:34;;;;;;;16.90;13.47;;;;;;;15.94;89.68;101135.91;2107031;28;20024;-61
2021/08/19 03:27:34;;;;;;;17.15;15.10;;;;;;;15.93;89.91;101138.63;2107020;28;20358;-62
2021/08/19 03:28:34;;;;;;;19.52;16.05;;;;;;;15.92;89.86;101140.44;2106778;28;20027;-61
2021/08/19 03:29:35;;;;;;;18.20;14.03;;;;;;;15.92;89.64;101139.56;2107037;28;20454;-61
2021/08/19 03:30:36;;;;;;;16.63;13.27;;;;;;;15.90;89.65;101142.28;2106924;28;20020;-63
2021/08/19 03:31:36;;;;;;;15.40;13.70;;;;;;;15.90;89.64;101142.28;2097773;28;20286;-62
2021/08/19 03:32:37;;;;;;;19.33;14.10;;;;;;;15.90;89.78;101136.19;2098015;28;20056;-62
2021/08/19 03:33:37;;;;;;;18.02;14.52;;;;;;;15.89;89.68;101148.50;2106948;28;20016;-62
2021/08/19 03:34:38;;;;;;;15.23;13.33;;;;;;;15.87;89.56;101134.59;2097961;28;20172;-61
2021/08/19 03:35:38;;;;;;;17.37;13.43;;;;;;;15.87;89.90;101139.84;2097915;28;20103;-61
2021/08/19 03:36:38;;;;;;;15.30;12.13;;;;;;;15.86;89.93;101132.91;2098022;28;20028;-62
2021/08/19 03:37:40;;;;;;;17.23;14.57;;;;;;;15.87;89.72;101133.75;2106868;28;20504;-63
2021/08/19 03:38:42;;;;;;;18.48;13.48;;;;;;;15.87;89.59;101137.22;2106851;28;20331;-63
2021/08/19 03:39:42;;;;;;;18.50;13.63;;;;;;;15.85;89.56;101136.47;2097900;28;20477;-60
2021/08/19 03:40:43;;;;;;;18.53;14.57;;;;;;;15.84;89.78;101132.97;2089482;28;20017;-61
2021/08/19 03:41:43;;;;;;;17.05;14.55;;;;;;;15.84;89.42;101135.63;2097920;28;20060;-62
2021/08/19 03:42:43;;;;;;;15.50;13.73;;;;;;;15.84;89.41;101142.66;2106933;28;20028;-62
2021/08/19 03:43:47;;;;;;;17.70;14.13;;;;;;;15.84;89.83;101134.75;2106815;28;20027;-63
2021/08/19 03:44:48;;;;;;;18.45;15.93;;;;;;;15.84;89.35;101130.34;2106854;28;20027;-61
2021/08/19 03:45:48;;;;;;;18.85;13.95;;;;;;;15.83;89.48;101138.34;2106824;28;20016;-63
2021/08/19 03:46:49;;;;;;;16.10;13.57;;;;;;;15.83;89.73;101138.34;2106817;28;20111;-62
2021/08/19 03:47:49;;;;;;;17.87;14.97;;;;;;;15.84;89.60;101142.66;2106782;28;20037;-62
2021/08/19 03:48:49;;;;;;;15.27;12.53;;;;;;;15.82;89.88;101126.13;2106868;28;20109;-60
2021/08/19 03:49:49;;;;;;;14.45;12.10;;;;;;;15.83;89.83;101138.34;2106774;28;20035;-62
2021/08/19 03:50:50;;;;;;;15.97;13.53;;;;;;;15.84;89.50;101140.03;2097808;28;20052;-61
2021/08/19 03:51:50;;;;;;;18.33;13.17;;;;;;;15.82;89.43;101140.13;2097941;28;20047;-62
2021/08/19 03:52:51;;;;;;;20.40;14.03;;;;;;;15.82;89.27;101141.91;2106040;28;20016;-63
2021/08/19 03:53:54;;;;;;;21.38;15.77;;;;;;;15.80;89.71;101134.09;2106256;28;20289;-62
2021/08/19 03:54:54;;;;;;;20.48;15.50;;;;;;;15.81;89.58;101140.22;2106720;28;20020;-63
2021/08/19 03:55:55;;;;;;;20.17;14.07;;;;;;;15.80;89.41;101147.25;2106921;28;20358;-61
2021/08/19 03:56:55;;;;;;;18.90;15.25;;;;;;;15.79;89.55;101142.94;2106859;28;20044;-62
2021/08/19 03:57:56;;;;;;;20.63;15.57;;;;;;;15.78;89.62;101141.22;2106746;28;20489;-63
2021/08/19 03:58:56;;;;;;;19.17;15.23;;;;;;;15.78;89.98;101141.22;2097826;28;20021;-62
2021/08/19 03:59:56;;;;;;;17.93;12.80;;;;;;;15.77;89.68;101141.34;2097929;28;20047;-62
2021/08/19 04:00:58;;;;;;;19.73;14.37;;;;;;;15.78;89.79;101141.22;2106704;28;20285;-62
2021/08/19 04:01:58;;;;;;;20.95;15.38;;;;;;;15.78;89.59;101145.66;2097717;28;20279;-63
2021/08/19 04:02:59;;;;;;;22.85;14.95;;;;;;;15.77;89.63;101151.88;2097882;28;20024;-62
2021/08/19 04:03:59;;;;;;;17.63;15.63;;;;;;;15.75;89.74;101146.69;2097720;28;20032;-63
2021/08/19 04:04:59;;;;;;;16.60;14.20;;;;;;;15.74;89.53;101150.25;2097763;28;20044;-63
2021/08/19 04:05:59;;;;;;;18.95;15.57;;;;;;;15.73;89.67;101132.78;2106725;28;20024;-64
2021/08/19 04:07:00;;;;;;;16.63;14.83;;;;;;;15.73;89.46;101150.38;2106868;28;20052;-64
2021/08/19 04:08:00;;;;;;;20.93;14.17;;;;;;;15.71;89.65;101145.19;2106667;28;20027;-64
2021/08/19 04:09:00;;;;;;;18.83;15.67;;;;;;;15.71;89.53;101148.66;2106804;28;20020;-64
2021/08/19 04:10:00;;;;;;;21.73;16.23;;;;;;;15.71;89.52;101146.03;2097749;28;20080;-62
2021/08/19 04:11:01;;;;;;;18.40;16.20;;;;;;;15.73;89.46;101145.09;2097893;28;20056;-62
2021/08/19 04:12:02;;;;;;;16.87;14.33;;;;;;;15.73;89.96;101147.75;2106578;28;20051;-63
2021/08/19 04:13:02;;;;;;;19.83;14.85;;;;;;;15.72;89.57;101144.25;2106822;28;20028;-63
2021/08/19 04:14:02;;;;;;;19.87;15.00;;;;;;;15.71;89.83;101140.75;2106710;28;20111;-61
2021/08/19 04:15:05;;;;;;;22.77;14.87;;;;;;;15.71;89.70;101140.75;2106853;28;20111;-63
2021/08/19 04:16:06;;;;;;;17.77;15.23;;;;;;;15.71;89.83;101140.75;2106756;28;20084;-61
2021/08/19 04:17:06;;;;;;;;;;;;;;;15.73;89.50;101147.75;2098056;28;20054;-63
2021/08/19 04:18:07;;;;;;;19.30;15.07;;;;;;;15.74;89.75;101146.78;2097816;28;19912;-64
2021/08/19 04:19:07;;;;;;;19.17;14.97;;;;;;;15.73;89.61;101143.31;2106661;28;20500;-63
2021/08/19 04:20:08;;;;;;;16.37;14.47;;;;;;;15.73;89.64;101148.56;2106696;28;20102;-61
2021/08/19 04:21:08;;;;;;;21.45;16.60;;;;;;;15.71;89.64;101139.94;2106754;28;20100;-62
2021/08/19 04:22:08;;;;;;;23.67;16.13;;;;;;;15.70;89.40;101144.34;2106772;28;20031;-62
2021/08/19 04:23:09;;;;;;;24.73;15.17;;;;;;;15.69;89.89;101147.91;2106713;28;20034;-63
2021/08/19 04:24:09;;;;;;;12.73;9.00;;;;;;;15.71;90.02;101145.19;2106732;28;20020;-62
2021/08/19 04:25:11;;;;;;;14.57;11.57;;;;;;;15.71;89.92;101138.13;2106647;28;20388;-61
2021/08/19 04:26:12;;;;;;;22.13;15.65;;;;;;;15.70;89.52;101141.72;2106737;28;20047;-62
2021/08/19 04:27:12;;;;;;;20.45;15.48;;;;;;;15.70;89.51;101143.47;2106754;28;20046;-61
2021/08/19 04:28:12;;;;;;;23.10;16.67;;;;;;;15.68;89.98;101140.94;2106666;28;20376;-62
2021/08/19 04:29:12;;;;;;;19.97;15.77;;;;;;;15.67;89.74;101143.69;2097631;28;20036;-63
2021/08/19 04:30:13;;;;;;;21.67;18.23;;;;;;;15.66;90.03;101145.47;2089397;28;20382;-62
2021/08/19 04:31:13;;;;;;;23.93;18.90;;;;;;;15.64;89.95;101139.44;2097701;28;20021;-63
2021/08/19 04:32:13;;;;;;;21.50;15.97;;;;;;;15.64;89.64;101147.31;2106663;28;20034;-62
2021/08/19 04:33:14;;;;;;;23.17;18.27;;;;;;;15.64;90.00;101146.50;2106700;28;20531;-63
2021/08/19 04:34:14;;;;;;;21.77;19.37;;;;;;;15.62;89.78;101135.19;2106733;28;20020;-62
2021/08/19 04:35:15;;;;;;;20.00;16.08;;;;;;;15.62;90.13;101143.94;2097663;28;20024;-62
2021/08/19 04:36:15;;;;;;;13.73;12.18;;;;;;;15.62;89.88;101141.31;2097628;28;20042;-63